Time;durP1;ratioP1;P1;durP2;ratioP2;P2;SDS_P1;SDS_P2;PMS_P1;PMS_P2;Temp;Humidity;BMP_temperature;BMP_pressure;BME280_temperature;BME280_humidity;BME280_pressure;Samples;Min_cycle;Max_cycle;Signal;HPM_P1;HPM_P2
2021/05/30 00:00:13;;;;;;;9.03;6.33;;;12.00;64.60;;;;;;4996292;28;20304;-69
2021/05/30 00:02:38;;;;;;;7.40;5.07;;;12.00;65.10;;;;;;4996150;28;20314;-69
2021/05/30 00:05:06;;;;;;;10.57;5.97;;;11.90;64.80;;;;;;4992980;28;20848;-69
2021/05/30 00:07:32;;;;;;;8.03;6.07;;;11.90;65.30;;;;;;4998030;28;20751;-70
2021/05/30 00:09:58;;;;;;;8.03;6.30;;;11.80;65.20;;;;;;4994265;28;20195;-70
2021/05/30 00:12:24;;;;;;;9.87;6.07;;;11.80;65.20;;;;;;4995227;28;20316;-69
2021/05/30 00:14:49;;;;;;;8.33;6.13;;;11.80;65.20;;;;;;5000676;28;20227;-71
2021/05/30 00:17:16;;;;;;;8.30;5.60;;;11.80;65.60;;;;;;4998568;28;20723;-69
2021/05/30 00:19:43;;;;;;;7.67;6.13;;;11.70;65.60;;;;;;4993800;28;20990;-69
2021/05/30 00:22:09;;;;;;;9.97;5.80;;;11.60;65.70;;;;;;5001574;28;20205;-70
2021/05/30 00:24:35;;;;;;;10.07;6.10;;;11.70;65.90;;;;;;5002487;28;20311;-71
2021/05/30 00:27:01;;;;;;;9.00;5.73;;;11.70;66.00;;;;;;4999458;28;20251;-69
2021/05/30 00:29:27;;;;;;;8.57;6.30;;;11.70;66.30;;;;;;4999418;28;20636;-70
2021/05/30 00:31:53;;;;;;;8.00;5.63;;;11.60;66.60;;;;;;5002344;28;20235;-70
2021/05/30 00:34:18;;;;;;;7.57;5.93;;;11.60;67.50;;;;;;4993627;28;20661;-69
2021/05/30 00:36:44;;;;;;;9.93;7.20;;;11.60;67.20;;;;;;4997141;28;20239;-70
2021/05/30 00:39:09;;;;;;;8.17;5.50;;;11.50;67.00;;;;;;5002953;28;20312;-69
2021/05/30 00:41:35;;;;;;;8.37;5.23;;;11.50;67.30;;;;;;5001380;28;20732;-71
2021/05/30 00:44:01;;;;;;;8.50;6.07;;;11.40;67.70;;;;;;4997689;28;20383;-68
2021/05/30 00:46:29;;;;;;;8.57;6.37;;;11.40;67.80;;;;;;4998505;28;20573;-69
2021/05/30 00:48:55;;;;;;;8.70;5.73;;;11.40;67.80;;;;;;4998629;28;20501;-70
2021/05/30 00:51:21;;;;;;;7.37;5.90;;;11.30;68.20;;;;;;4998182;28;20783;-69
2021/05/30 00:53:47;;;;;;;9.20;6.73;;;11.40;68.70;;;;;;5000576;28;20241;-70
2021/05/30 00:56:14;;;;;;;7.40;5.60;;;11.30;69.50;;;;;;4998435;28;20695;-69
2021/05/30 00:58:40;;;;;;;8.47;6.10;;;11.30;69.00;;;;;;4998586;28;20551;-69
2021/05/30 01:01:06;;;;;;;7.50;6.00;;;11.20;69.40;;;;;;4997918;28;20202;-70
2021/05/30 01:03:37;;;;;;;6.83;5.87;;;11.20;69.80;;;;;;4998609;28;20241;-69
2021/05/30 01:06:03;;;;;;;8.43;4.90;;;11.10;69.60;;;;;;4996120;28;20241;-69
2021/05/30 01:08:29;;;;;;;9.73;6.50;;;11.10;70.20;;;;;;4999237;28;20306;-68
2021/05/30 01:10:59;;;;;;;6.67;5.57;;;11.10;70.40;;;;;;4998645;28;20338;-68
2021/05/30 01:13:25;;;;;;;8.73;5.97;;;11.00;70.80;;;;;;4998074;28;20255;-69
2021/05/30 01:15:51;;;;;;;8.33;6.47;;;11.00;70.80;;;;;;4995883;28;20238;-69
2021/05/30 01:18:22;;;;;;;10.43;6.17;;;11.00;71.10;;;;;;5000574;28;20230;-69
2021/05/30 01:20:50;;;;;;;7.87;6.33;;;10.90;71.40;;;;;;4996274;28;20231;-69
2021/05/30 01:23:18;;;;;;;8.30;5.73;;;10.90;71.60;;;;;;4999350;28;20244;-71
2021/05/30 01:25:44;;;;;;;8.13;5.83;;;10.90;71.60;;;;;;4995897;28;20195;-69
2021/05/30 01:28:10;;;;;;;9.60;6.40;;;10.90;71.90;;;;;;5000380;28;20697;-69
2021/05/30 01:30:36;;;;;;;9.00;6.13;;;10.80;72.20;;;;;;4995336;28;20335;-69
2021/05/30 01:33:03;;;;;;;10.70;6.70;;;10.80;72.60;;;;;;4995405;28;20335;-70
2021/05/30 01:35:29;;;;;;;9.40;6.90;;;10.80;72.80;;;;;;4997079;28;20626;-69
2021/05/30 01:37:55;;;;;;;9.53;6.10;;;10.80;72.80;;;;;;5002795;28;20240;-70
2021/05/30 01:40:21;;;;;;;7.60;6.27;;;10.80;72.80;;;;;;5002377;28;20541;-69
2021/05/30 01:42:48;;;;;;;8.63;6.27;;;10.80;72.80;;;;;;4997421;28;20601;-69
2021/05/30 01:45:16;;;;;;;7.03;6.07;;;10.60;72.60;;;;;;4994855;28;20731;-69
2021/05/30 01:47:44;;;;;;;11.43;6.97;;;10.70;73.40;;;;;;5001772;28;20331;-69
2021/05/30 01:50:15;;;;;;;9.00;6.03;;;10.60;73.90;;;;;;5004527;28;20243;-70
2021/05/30 01:52:42;;;;;;;10.33;6.13;;;10.60;74.00;;;;;;5005273;28;20216;-70
2021/05/30 01:55:10;;;;;;;8.30;5.93;;;10.50;74.60;;;;;;4995754;28;20810;-69
2021/05/30 01:57:44;;;;;;;8.90;6.33;;;10.50;74.90;;;;;;4998114;28;20231;-69
2021/05/30 02:00:10;;;;;;;9.80;6.63;;;10.50;75.00;;;;;;4996856;28;20235;-71
2021/05/30 02:02:37;;;;;;;9.33;6.00;;;10.40;75.50;;;;;;4992257;28;20243;-69
2021/05/30 02:05:04;;;;;;;8.33;5.83;;;10.40;75.30;;;;;;4996241;28;20574;-69
2021/05/30 02:07:31;;;;;;;7.90;6.20;;;10.40;76.10;;;;;;5001110;28;20192;-70
2021/05/30 02:09:58;;;;;;;8.23;6.40;;;10.30;76.30;;;;;;4997661;28;20188;-70
2021/05/30 02:12:25;;;;;;;8.30;6.20;;;10.20;76.80;;;;;;4998689;28;20258;-70
2021/05/30 02:14:53;;;;;;;12.33;7.23;;;10.20;77.30;;;;;;4997224;28;20959;-69
2021/05/30 02:17:19;;;;;;;8.60;6.30;;;10.20;76.80;;;;;;4998033;28;20228;-69
2021/05/30 02:19:44;;;;;;;9.87;6.73;;;10.20;77.50;;;;;;4994963;28;20192;-69
2021/05/30 02:22:10;;;;;;;7.00;5.93;;;10.20;77.80;;;;;;4998198;28;20251;-69
2021/05/30 02:24:36;;;;;;;11.30;6.90;;;10.20;78.20;;;;;;4996461;28;20310;-70
2021/05/30 02:27:01;;;;;;;7.73;6.10;;;10.10;78.60;;;;;;4994608;28;20236;-70
2021/05/30 02:29:37;;;;;;;9.77;6.80;;;10.10;79.10;;;;;;4994454;28;20321;-69
2021/05/30 02:32:04;;;;;;;8.33;6.37;;;10.20;79.30;;;;;;4995528;28;20233;-70
2021/05/30 02:34:30;;;;;;;11.13;6.43;;;10.10;79.30;;;;;;5001387;28;20554;-70
2021/05/30 02:36:56;;;;;;;8.47;6.07;;;10.00;79.40;;;;;;5008645;28;20196;-70
2021/05/30 02:39:22;;;;;;;8.57;6.43;;;10.00;79.90;;;;;;4995780;28;20223;-70
2021/05/30 02:41:47;;;;;;;8.33;6.30;;;9.90;81.40;;;;;;4993058;28;20698;-70
2021/05/30 02:44:13;;;;;;;8.50;6.40;;;9.90;81.40;;;;;;4995771;28;20231;-70
2021/05/30 02:46:38;;;;;;;9.33;6.17;;;9.90;81.40;;;;;;4994198;28;20191;-70
2021/05/30 02:49:04;;;;;;;10.00;6.13;;;9.80;81.40;;;;;;4997085;28;20196;-70
2021/05/30 02:51:30;;;;;;;10.40;6.27;;;9.80;81.90;;;;;;4994631;28;20220;-70
2021/05/30 02:53:55;;;;;;;8.87;6.17;;;9.80;82.40;;;;;;4998927;28;20301;-69
2021/05/30 02:56:21;;;;;;;9.17;6.57;;;9.70;82.80;;;;;;4994523;28;20220;-70
2021/05/30 02:58:46;;;;;;;11.73;6.27;;;9.70;82.90;;;;;;4995084;28;20195;-70
2021/05/30 03:01:12;;;;;;;11.70;7.20;;;9.60;83.40;;;;;;4997554;28;20215;-70
2021/05/30 03:03:38;;;;;;;12.10;6.90;;;9.60;83.80;;;;;;4994384;28;20229;-70
2021/05/30 03:06:03;;;;;;;9.23;6.67;;;9.50;83.90;;;;;;4995819;28;20266;-70
2021/05/30 03:08:29;;;;;;;7.77;6.53;;;9.50;84.30;;;;;;4997559;28;20375;-69
2021/05/30 03:10:55;;;;;;;9.90;6.87;;;9.50;85.00;;;;;;4997835;28;20340;-70
2021/05/30 03:13:20;;;;;;;11.37;6.63;;;9.40;85.70;;;;;;4992213;28;20218;-69
2021/05/30 03:15:46;;;;;;;8.47;6.40;;;9.40;85.70;;;;;;4995746;28;20227;-70
2021/05/30 03:18:12;;;;;;;10.77;6.43;;;9.40;85.70;;;;;;4993669;28;20628;-70
2021/05/30 03:20:37;;;;;;;9.93;6.27;;;9.30;86.10;;;;;;4996046;28;20239;-70
2021/05/30 03:23:03;;;;;;;8.27;6.50;;;9.40;86.30;;;;;;4995234;28;20217;-70
2021/05/30 03:25:29;;;;;;;11.73;6.40;;;9.40;86.40;;;;;;4992174;28;20196;-70
2021/05/30 03:27:55;;;;;;;10.47;6.63;;;9.30;86.60;;;;;;4996522;28;20192;-70
2021/05/30 03:30:21;;;;;;;9.13;6.40;;;9.30;87.30;;;;;;4996469;28;20292;-70
2021/05/30 03:32:46;;;;;;;9.63;7.03;;;9.30;87.60;;;;;;4995088;28;20231;-69
2021/05/30 03:35:12;;;;;;;13.10;7.00;;;9.30;87.10;;;;;;4993837;28;20235;-69
2021/05/30 03:37:38;;;;;;;10.37;7.20;;;9.30;87.30;;;;;;4993931;28;20708;-70
2021/05/30 03:40:12;;;;;;;11.40;6.80;;;9.30;87.20;;;;;;4997670;28;20226;-70
2021/05/30 03:42:41;;;;;;;9.73;6.57;;;9.40;87.10;;;;;;4993191;28;20311;-70
2021/05/30 03:45:08;;;;;;;10.23;7.20;;;9.30;87.20;;;;;;4993633;28;20276;-69
2021/05/30 03:47:33;;;;;;;9.37;6.50;;;9.30;87.30;;;;;;4994798;28;20223;-71
2021/05/30 03:50:00;;;;;;;8.80;6.57;;;9.30;87.60;;;;;;4997267;28;20326;-70
2021/05/30 03:52:25;;;;;;;12.40;7.50;;;9.30;87.60;;;;;;4990464;28;20223;-69
2021/05/30 03:54:51;;;;;;;10.60;7.13;;;9.30;87.50;;;;;;4997756;28;20270;-70
2021/05/30 03:57:16;;;;;;;10.60;6.93;;;9.30;87.60;;;;;;5003607;28;20231;-70
2021/05/30 03:59:42;;;;;;;11.87;7.20;;;9.30;87.90;;;;;;4999025;28;20224;-70
2021/05/30 04:02:08;;;;;;;9.23;6.83;;;9.30;87.80;;;;;;4997642;28;20442;-69
2021/05/30 04:04:33;;;;;;;9.17;6.53;;;9.40;87.40;;;;;;4997791;28;20226;-69
2021/05/30 04:06:59;;;;;;;10.90;6.83;;;9.40;87.80;;;;;;5000449;28;20722;-70
2021/05/30 04:09:24;;;;;;;9.67;7.30;;;9.30;88.50;;;;;;5000570;28;20246;-70
2021/05/30 04:11:50;;;;;;;11.10;6.97;;;9.30;88.90;;;;;;5002670;28;20228;-69
2021/05/30 04:14:16;;;;;;;11.10;7.27;;;9.40;89.00;;;;;;4993914;28;20236;-69
2021/05/30 04:16:41;;;;;;;10.43;6.97;;;9.40;88.30;;;;;;4996010;28;20246;-69
2021/05/30 04:19:07;;;;;;;11.30;7.10;;;9.50;88.00;;;;;;4999573;28;20211;-69
2021/05/30 04:21:32;;;;;;;10.80;6.63;;;9.60;87.30;;;;;;4997732;28;20264;-69
2021/05/30 04:23:58;;;;;;;8.93;6.53;;;9.60;87.10;;;;;;4994663;28;20242;-68
2021/05/30 04:26:24;;;;;;;10.27;6.90;;;9.70;86.50;;;;;;4998738;28;20229;-69
2021/05/30 04:28:51;;;;;;;9.43;6.47;;;9.80;86.80;;;;;;4998762;28;20664;-69
2021/05/30 04:31:17;;;;;;;11.50;6.97;;;9.90;85.30;;;;;;4999781;28;20200;-69
2021/05/30 04:33:42;;;;;;;11.93;6.60;;;10.00;83.20;;;;;;4996132;28;20243;-69
2021/05/30 04:36:08;;;;;;;9.97;7.33;;;10.10;81.70;;;;;;5004939;28;20240;-69
2021/05/30 04:38:33;;;;;;;11.00;7.30;;;10.20;81.30;;;;;;4999649;28;20225;-69
2021/05/30 04:41:00;;;;;;;9.93;7.63;;;10.30;80.70;;;;;;4996549;28;20263;-69
2021/05/30 04:43:26;;;;;;;10.33;7.07;;;10.30;80.70;;;;;;5004617;28;20192;-70
2021/05/30 04:45:52;;;;;;;11.63;6.50;;;10.40;80.00;;;;;;4997030;28;20732;-69
2021/05/30 04:48:18;;;;;;;8.43;6.57;;;10.50;79.00;;;;;;5002856;23;20243;-70
2021/05/30 04:51:04;;;;;;;10.43;6.50;;;10.50;78.50;;;;;;4999789;28;20265;-70
2021/05/30 04:53:29;;;;;;;8.93;6.67;;;10.70;77.10;;;;;;5006497;23;20285;-70
2021/05/30 04:55:54;;;;;;;11.77;6.77;;;10.80;77.70;;;;;;5002798;28;20228;-70
2021/05/30 04:58:20;;;;;;;9.53;6.57;;;10.90;77.00;;;;;;4991875;28;20191;-70
2021/05/30 05:00:45;;;;;;;8.53;6.47;;;11.00;76.60;;;;;;5001476;28;20310;-70
2021/05/30 05:03:11;;;;;;;11.33;7.30;;;11.20;75.40;;;;;;5004094;28;20227;-70
2021/05/30 05:05:36;;;;;;;8.33;6.07;;;11.30;72.80;;;;;;5000424;28;20228;-69
2021/05/30 05:08:02;;;;;;;10.03;6.67;;;11.40;73.70;;;;;;4999773;28;20235;-70
2021/05/30 05:10:28;;;;;;;10.37;7.20;;;11.50;73.50;;;;;;5000492;28;20675;-69
2021/05/30 05:12:53;;;;;;;10.20;6.90;;;11.70;71.50;;;;;;5021152;23;20238;-70
2021/05/30 05:15:19;;;;;;;8.60;6.53;;;11.80;72.30;;;;;;5025467;28;20236;-70
2021/05/30 05:17:44;;;;;;;10.03;6.60;;;12.10;69.50;;;;;;4990882;23;20257;-70
2021/05/30 05:20:11;;;;;;;8.00;6.43;;;12.00;69.90;;;;;;4988897;28;20337;-70
2021/05/30 05:22:37;;;;;;;8.67;6.27;;;11.90;70.40;;;;;;5001039;28;25508;-70
2021/05/30 05:25:03;;;;;;;8.93;6.20;;;11.80;70.30;;;;;;5007543;28;20254;-70
2021/05/30 05:27:29;;;;;;;6.37;5.47;;;11.90;70.20;;;;;;5002433;28;20307;-71
2021/05/30 05:29:55;;;;;;;8.70;6.13;;;12.00;69.80;;;;;;5007187;28;20325;-69
2021/05/30 05:32:20;;;;;;;8.40;6.43;;;12.10;68.80;;;;;;4997889;28;20236;-70
2021/05/30 05:34:46;;;;;;;8.20;6.30;;;12.10;69.50;;;;;;5007295;28;20183;-69
2021/05/30 05:37:11;;;;;;;9.93;6.53;;;12.20;68.10;;;;;;5006482;23;20243;-69
2021/05/30 05:39:37;;;;;;;10.93;6.53;;;12.20;69.20;;;;;;4998617;28;22315;-69
2021/05/30 05:42:03;;;;;;;8.10;6.07;;;12.30;67.60;;;;;;5006906;23;20240;-70
2021/05/30 05:44:29;;;;;;;9.27;6.57;;;12.50;67.40;;;;;;5005972;23;20272;-69
2021/05/30 05:46:54;;;;;;;7.83;6.40;;;12.50;67.90;;;;;;5004288;28;20235;-69
2021/05/30 05:49:20;;;;;;;10.70;6.20;;;12.50;67.40;;;;;;5005140;28;20642;-70
2021/05/30 05:51:45;;;;;;;9.57;6.47;;;12.50;66.80;;;;;;5026937;23;20294;-70
2021/05/30 05:54:11;;;;;;;7.10;5.67;;;12.60;68.30;;;;;;5024927;28;20238;-70
2021/05/30 05:56:37;;;;;;;9.03;6.37;;;12.40;68.10;;;;;;5020160;28;20238;-70
2021/05/30 05:59:02;;;;;;;9.67;6.30;;;12.50;68.10;;;;;;5024683;28;20950;-70
2021/05/30 06:01:29;;;;;;;10.07;6.43;;;12.60;67.70;;;;;;4998823;28;20183;-70
2021/05/30 06:03:54;;;;;;;10.10;6.13;;;12.70;66.70;;;;;;5024477;28;20219;-70
2021/05/30 06:06:20;;;;;;;6.30;4.90;;;12.80;65.60;;;;;;5017566;28;20231;-68
2021/05/30 06:08:46;;;;;;;8.27;5.67;;;12.70;66.10;;;;;;4999207;28;20311;-69
2021/05/30 06:11:11;;;;;;;8.07;6.03;;;12.80;66.10;;;;;;5017398;28;20239;-69
2021/05/30 06:13:37;;;;;;;4.60;3.83;;;12.70;66.00;;;;;;5016345;28;20326;-68
2021/05/30 06:16:05;;;;;;;8.20;5.23;;;12.70;64.50;;;;;;5016860;28;20240;-69
2021/05/30 06:18:32;;;;;;;7.97;5.27;;;12.80;65.30;;;;;;5017457;28;20265;-71
2021/05/30 06:20:58;;;;;;;6.80;4.33;;;13.00;64.40;;;;;;5006300;23;20236;-69
2021/05/30 06:23:24;;;;;;;8.83;5.90;;;13.10;62.80;;;;;;4993650;28;20247;-69
2021/05/30 06:25:49;;;;;;;7.40;5.57;;;13.10;63.40;;;;;;4996143;28;20231;-69
2021/05/30 06:28:15;;;;;;;8.43;5.27;;;13.30;63.00;;;;;;4996344;28;20198;-69
2021/05/30 06:30:41;;;;;;;7.83;5.47;;;13.70;62.60;;;;;;4992435;28;20691;-70
2021/05/30 06:33:08;;;;;;;10.20;5.70;;;13.90;61.60;;;;;;4995183;28;20231;-70
2021/05/30 06:35:39;;;;;;;7.00;5.67;;;14.00;59.80;;;;;;4991969;28;20263;-70
2021/05/30 06:38:06;;;;;;;6.60;5.03;;;14.00;59.50;;;;;;4995135;28;20220;-69
2021/05/30 06:40:32;;;;;;;7.43;5.23;;;14.30;58.80;;;;;;4999186;28;20188;-68
2021/05/30 06:42:57;;;;;;;5.70;4.70;;;14.40;58.90;;;;;;4998797;28;20265;-69
2021/05/30 06:45:23;;;;;;;6.17;4.30;;;14.50;58.50;;;;;;4995524;28;21375;-70
2021/05/30 06:47:50;;;;;;;6.30;4.73;;;14.40;58.20;;;;;;4995220;28;20271;-70
2021/05/30 06:50:16;;;;;;;7.20;4.80;;;14.30;58.80;;;;;;4998862;28;20283;-70
2021/05/30 06:52:41;;;;;;;6.40;4.63;;;14.50;57.60;;;;;;4998827;28;20219;-69
2021/05/30 06:55:08;;;;;;;7.43;4.83;;;14.50;56.80;;;;;;4998109;28;20249;-70
2021/05/30 06:57:33;;;;;;;6.10;4.83;;;14.70;56.30;;;;;;4972409;28;20234;-71
2021/05/30 06:59:59;;;;;;;5.80;4.63;;;14.80;56.10;;;;;;4992825;28;20228;-70
2021/05/30 07:02:25;;;;;;;7.90;4.67;;;15.00;56.00;;;;;;4996286;28;20242;-71
2021/05/30 07:04:50;;;;;;;5.97;3.90;;;15.30;53.70;;;;;;4997491;28;20236;-70
2021/05/30 07:07:16;;;;;;;4.90;3.80;;;15.40;54.30;;;;;;4994864;28;20233;-70
2021/05/30 07:09:43;;;;;;;7.47;4.20;;;15.50;54.20;;;;;;4997629;28;20282;-69
2021/05/30 07:12:09;;;;;;;5.17;4.37;;;15.50;53.80;;;;;;4996213;28;20725;-70
2021/05/30 07:14:35;;;;;;;5.83;4.70;;;15.60;54.00;;;;;;4995770;28;20743;-70
2021/05/30 07:17:00;;;;;;;5.40;4.40;;;15.80;53.90;;;;;;4994101;28;20387;-70
2021/05/30 07:19:26;;;;;;;6.33;4.90;;;15.80;53.30;;;;;;5000993;28;20200;-71
2021/05/30 07:21:52;;;;;;;4.70;4.20;;;15.90;51.50;;;;;;4994418;28;20227;-70
2021/05/30 07:24:17;;;;;;;6.60;4.50;;;16.10;52.90;;;;;;4995971;28;20235;-72
2021/05/30 07:26:43;;;;;;;5.50;4.50;;;16.00;51.90;;;;;;4994321;28;20216;-71
2021/05/30 07:29:09;;;;;;;6.37;4.53;;;15.90;53.70;;;;;;4995207;28;20224;-70
2021/05/30 07:31:36;;;;;;;5.73;4.30;;;15.90;53.10;;;;;;4994511;28;20200;-70
2021/05/30 07:34:01;;;;;;;5.90;5.07;;;16.00;53.40;;;;;;4995012;28;20272;-70
2021/05/30 07:36:28;;;;;;;6.10;4.93;;;15.90;54.30;;;;;;4995481;28;20228;-70
2021/05/30 07:38:55;;;;;;;5.20;4.50;;;16.00;53.60;;;;;;4981308;28;20228;-69
2021/05/30 07:41:21;;;;;;;5.47;4.40;;;16.10;53.20;;;;;;4990936;28;20251;-71
2021/05/30 07:43:48;;;;;;;6.37;4.33;;;15.80;53.30;;;;;;4988991;28;20196;-69
2021/05/30 07:46:14;;;;;;;5.90;4.63;;;15.60;53.50;;;;;;4986100;28;20203;-69
2021/05/30 07:48:39;;;;;;;5.53;4.23;;;15.60;54.40;;;;;;4983210;28;20232;-69
2021/05/30 07:51:05;;;;;;;5.40;3.93;;;15.80;54.60;;;;;;4996830;28;20559;-70
2021/05/30 07:53:32;;;;;;;5.87;4.30;;;15.80;54.30;;;;;;4995700;28;20232;-69
2021/05/30 07:55:58;;;;;;;8.53;4.17;;;16.00;53.00;;;;;;4993851;28;20373;-69
2021/05/30 07:58:24;;;;;;;5.40;4.80;;;16.20;51.90;;;;;;4995999;28;20655;-70
2021/05/30 08:00:51;;;;;;;6.23;4.07;;;16.10;52.70;;;;;;4988895;28;20238;-69
2021/05/30 08:03:16;;;;;;;5.13;4.30;;;16.30;52.00;;;;;;4994755;28;20599;-69
2021/05/30 08:05:42;;;;;;;6.10;4.43;;;16.40;51.40;;;;;;4995343;28;20225;-69
2021/05/30 08:08:08;;;;;;;4.63;3.90;;;16.40;52.00;;;;;;4993507;28;20303;-70
2021/05/30 08:10:33;;;;;;;5.03;4.53;;;16.60;51.10;;;;;;4984274;28;20630;-69
2021/05/30 08:12:59;;;;;;;5.10;4.20;;;16.40;50.50;;;;;;4996699;28;20221;-68
2021/05/30 08:15:25;;;;;;;4.90;3.90;;;16.60;51.10;;;;;;4991423;28;20490;-67
2021/05/30 08:17:54;;;;;;;4.43;3.53;;;16.80;49.60;;;;;;4994666;28;20233;-66
2021/05/30 08:20:24;;;;;;;4.23;3.60;;;16.60;50.20;;;;;;4991258;28;20688;-66
2021/05/30 08:22:50;;;;;;;6.87;4.27;;;16.70;50.10;;;;;;4994373;28;22422;-65
2021/05/30 08:25:17;;;;;;;5.37;4.20;;;16.60;50.20;;;;;;4994432;28;20202;-66
2021/05/30 08:27:43;;;;;;;3.93;3.53;;;16.90;50.50;;;;;;4995070;28;20224;-66
2021/05/30 08:30:11;;;;;;;4.07;3.67;;;17.00;49.90;;;;;;4995323;28;20233;-66
2021/05/30 08:32:37;;;;;;;5.20;3.80;;;17.20;48.30;;;;;;4991850;28;20339;-65
2021/05/30 08:35:05;;;;;;;3.77;3.43;;;17.40;48.50;;;;;;4992141;28;20837;-66
2021/05/30 08:37:30;;;;;;;5.77;4.07;;;17.50;48.50;;;;;;4993279;28;20604;-66
2021/05/30 08:39:56;;;;;;;5.60;3.83;;;17.60;48.50;;;;;;4992209;28;20190;-66
2021/05/30 08:42:22;;;;;;;3.90;3.33;;;17.60;48.70;;;;;;4988320;28;20289;-67
2021/05/30 08:44:52;;;;;;;3.40;3.10;;;17.60;48.50;;;;;;4979121;28;20248;-66
2021/05/30 08:47:19;;;;;;;6.43;3.63;;;17.80;46.90;;;;;;4997567;28;20292;-66
2021/05/30 08:49:44;;;;;;;4.77;3.43;;;18.00;45.50;;;;;;4992612;28;20209;-66
2021/05/30 08:52:10;;;;;;;5.53;3.77;;;17.70;45.90;;;;;;4991478;28;20205;-66
2021/05/30 08:54:36;;;;;;;4.47;3.47;;;17.80;45.40;;;;;;4991907;28;20254;-66
2021/05/30 08:57:02;;;;;;;5.13;3.53;;;17.80;46.00;;;;;;4988679;28;20230;-66
2021/05/30 08:59:30;;;;;;;3.47;3.17;;;17.90;44.40;;;;;;4991080;28;20239;-66
2021/05/30 09:02:01;;;;;;;3.67;3.27;;;17.70;46.30;;;;;;4981119;28;20263;-66
2021/05/30 09:04:35;;;;;;;6.03;3.70;;;17.50;47.10;;;;;;4994019;28;20214;-66
2021/05/30 09:07:02;;;;;;;4.20;3.80;;;17.50;47.70;;;;;;4998804;28;20223;-67
2021/05/30 09:09:41;;;;;;;4.97;3.47;;;17.60;46.50;;;;;;4992360;28;20224;-67
2021/05/30 09:12:23;;;;;;;4.77;3.40;;;17.70;47.00;;;;;;4995347;28;20237;-67
2021/05/30 09:14:51;;;;;;;3.83;2.97;;;17.90;46.50;;;;;;4999982;28;20242;-68
2021/05/30 09:17:18;;;;;;;4.87;3.50;;;18.20;45.70;;;;;;4999925;28;20229;-68
2021/05/30 09:19:59;;;;;;;5.20;2.90;;;18.50;44.00;;;;;;4995025;28;20211;-66
2021/05/30 09:22:39;;;;;;;3.70;3.10;;;18.60;43.50;;;;;;4994327;28;20199;-66
2021/05/30 09:25:18;;;;;;;3.90;3.13;;;18.70;43.30;;;;;;5000249;28;20322;-66
2021/05/30 09:27:47;;;;;;;4.93;3.03;;;18.70;41.90;;;;;;4998481;28;20224;-66
2021/05/30 09:30:24;;;;;;;4.80;3.00;;;18.70;43.70;;;;;;4991605;28;20240;-67
2021/05/30 09:33:21;;;;;;;4.27;3.03;;;18.70;42.60;;;;;;4994406;28;20262;-67
2021/05/30 09:35:53;;;;;;;3.67;2.97;;;18.50;42.80;;;;;;4989703;28;20231;-67
2021/05/30 09:38:37;;;;;;;4.10;3.50;;;18.70;44.20;;;;;;4991976;28;20586;-68
2021/05/30 09:41:04;;;;;;;5.20;2.90;;;18.60;42.90;;;;;;4995663;28;20636;-67
2021/05/30 09:43:35;;;;;;;3.53;3.00;;;18.50;43.60;;;;;;4979113;28;20656;-67
2021/05/30 09:46:10;;;;;;;3.37;3.07;;;18.50;42.50;;;;;;4994775;28;20206;-67
2021/05/30 09:48:43;;;;;;;4.27;3.87;;;18.40;43.70;;;;;;4991727;28;20281;-68
2021/05/30 09:51:27;;;;;;;4.43;3.53;;;18.60;44.00;;;;;;4996837;28;20281;-67
2021/05/30 09:53:55;;;;;;;3.97;3.37;;;18.80;45.20;;;;;;4981498;28;20329;-67
2021/05/30 09:56:32;;;;;;;3.40;2.93;;;19.10;43.50;;;;;;4994293;28;20220;-67
2021/05/30 09:58:59;;;;;;;4.00;3.30;;;19.10;41.90;;;;;;4995795;28;20222;-67
2021/05/30 10:01:26;;;;;;;7.30;3.53;;;18.60;42.80;;;;;;4998239;28;20201;-66
2021/05/30 10:03:56;;;;;;;3.10;2.80;;;18.60;44.10;;;;;;4999042;28;20227;-67
2021/05/30 10:06:22;;;;;;;4.03;2.70;;;18.60;42.50;;;;;;4998153;28;20247;-67
2021/05/30 10:08:49;;;;;;;4.97;2.97;;;18.80;44.30;;;;;;4995450;28;20238;-67
2021/05/30 10:11:17;;;;;;;3.53;3.13;;;19.00;43.50;;;;;;4983705;28;20544;-67
2021/05/30 10:13:43;;;;;;;4.33;3.00;;;19.00;44.00;;;;;;4995161;28;20224;-67
2021/05/30 10:16:09;;;;;;;4.60;3.13;;;19.00;43.80;;;;;;4996936;28;20192;-67
2021/05/30 10:18:42;;;;;;;3.40;3.10;;;19.20;43.40;;;;;;4997644;28;20225;-66
2021/05/30 10:21:13;;;;;;;4.77;3.37;;;19.40;43.00;;;;;;4999014;28;20244;-67
2021/05/30 10:23:40;;;;;;;3.23;2.93;;;19.60;41.10;;;;;;4996194;28;20323;-67
2021/05/30 10:26:20;;;;;;;2.97;2.67;;;19.50;41.90;;;;;;4998886;28;20310;-67
2021/05/30 10:29:02;;;;;;;4.07;3.43;;;19.80;40.30;;;;;;4997252;28;20759;-68
2021/05/30 10:31:33;;;;;;;3.40;3.00;;;19.90;40.80;;;;;;4996116;28;20201;-67
2021/05/30 10:34:15;;;;;;;3.10;2.80;;;20.00;41.80;;;;;;4995302;28;20233;-69
2021/05/30 10:37:05;;;;;;;3.10;2.80;;;20.00;40.30;;;;;;4994252;28;20753;-68
2021/05/30 10:39:30;;;;;;;3.10;2.20;;;19.70;40.60;;;;;;5000185;28;20227;-69
2021/05/30 10:42:06;;;;;;;4.17;2.40;;;19.70;40.00;;;;;;4995723;28;20575;-65
2021/05/30 10:44:59;;;;;;;2.70;2.23;;;18.40;35.60;;;;;;4991718;28;20239;-69
2021/05/30 10:48:03;;;;;;;3.70;2.40;;;20.00;36.60;;;;;;5017917;23;20239;-69
2021/05/30 10:50:40;;;;;;;3.20;2.13;;;20.20;36.70;;;;;;5011655;23;20614;-70
2021/05/30 10:53:31;;;;;;;4.10;2.47;;;20.20;36.70;;;;;;5048890;23;20248;-70
2021/05/30 10:58:22;;;;;;;2.30;2.10;;;20.90;35.50;;;;;;5011478;23;20236;-71
2021/05/30 11:00:50;;;;;;;2.47;2.27;;;21.00;34.40;;;;;;4999885;28;20220;-70
2021/05/30 11:03:15;;;;;;;3.03;1.83;;;20.60;35.90;;;;;;4995430;28;20991;-70
2021/05/30 11:05:46;;;;;;;1.87;1.77;;;20.60;32.90;;;;;;5013533;23;20357;-70
2021/05/30 11:08:33;;;;;;;2.97;2.10;;;20.40;34.20;;;;;;5010316;28;20647;-69
2021/05/30 11:11:21;;;;;;;1.97;1.80;;;20.50;33.60;;;;;;5024842;23;20583;-72
2021/05/30 11:13:52;;;;;;;2.90;1.90;;;21.00;33.10;;;;;;5027223;23;20335;-70
2021/05/30 11:16:20;;;;;;;3.33;2.67;;;20.90;33.20;;;;;;4987253;28;20257;-70
2021/05/30 11:18:59;;;;;;;3.40;2.13;;;20.70;33.70;;;;;;5017038;23;20383;-71
2021/05/30 11:21:33;;;;;;;2.60;2.20;;;20.70;33.30;;;;;;5017301;23;20239;-70
2021/05/30 11:24:04;;;;;;;2.10;1.90;;;20.70;34.80;;;;;;5024833;28;20312;-70
2021/05/30 11:26:30;;;;;;;2.00;1.90;;;21.30;33.10;;;;;;5024654;23;20300;-70
2021/05/30 11:28:56;;;;;;;2.63;2.07;;;21.30;33.60;;;;;;5017399;28;20227;-70
2021/05/30 11:31:22;;;;;;;2.30;2.07;;;21.80;33.30;;;;;;5017435;23;20235;-69
2021/05/30 11:34:05;;;;;;;2.20;2.00;;;21.90;33.20;;;;;;4991295;28;20239;-69
2021/05/30 11:36:37;;;;;;;2.20;2.00;;;22.60;32.60;;;;;;4994709;28;20598;-69
2021/05/30 11:39:09;;;;;;;2.07;1.87;;;22.90;31.80;;;;;;4979805;28;20580;-70
2021/05/30 11:41:37;;;;;;;3.33;1.90;;;22.30;31.10;;;;;;4998540;28;20240;-70
2021/05/30 11:44:05;;;;;;;1.90;1.73;;;22.30;30.70;;;;;;4998593;28;20238;-71
2021/05/30 11:46:46;;;;;;;1.80;1.70;;;22.40;28.80;;;;;;5029731;23;20344;-71
2021/05/30 11:49:46;;;;;;;1.30;1.20;;;23.10;28.60;;;;;;5017966;28;20235;-68
2021/05/30 11:52:15;;;;;;;1.90;1.80;;;22.90;28.10;;;;;;4991129;28;20249;-69
2021/05/30 11:54:44;;;;;;;1.80;1.70;;;22.90;28.20;;;;;;5024810;28;21028;-69
2021/05/30 11:57:25;;;;;;;2.10;1.90;;;22.40;27.90;;;;;;5026549;28;20234;-69
2021/05/30 11:59:57;;;;;;;3.03;2.83;;;22.10;28.10;;;;;;5026384;28;20222;-69
2021/05/30 12:02:38;;;;;;;1.80;1.70;;;23.00;28.20;;;;;;5024611;28;20257;-70
2021/05/30 12:05:11;;;;;;;3.72;1.48;;;25.10;26.30;;;;;;5017074;28;20377;-70
2021/05/30 12:07:37;;;;;;;2.10;1.90;;;25.30;24.30;;;;;;5016913;28;20233;-70
2021/05/30 12:10:10;;;;;;;1.50;1.38;;;25.60;25.30;;;;;;5016321;28;20274;-69
2021/05/30 12:12:37;;;;;;;3.60;1.67;;;25.60;26.10;;;;;;5011137;28;20714;-70
2021/05/30 12:15:08;;;;;;;1.88;1.50;;;25.70;25.00;;;;;;5009196;28;20698;-69
2021/05/30 12:17:36;;;;;;;1.90;1.48;;;25.50;25.40;;;;;;5014697;28;20715;-70
2021/05/30 12:20:04;;;;;;;1.77;1.40;;;26.30;24.90;;;;;;5010524;28;20321;-69
2021/05/30 12:22:31;;;;;;;2.47;2.28;;;26.90;22.50;;;;;;5010217;28;20791;-69
2021/05/30 12:24:57;;;;;;;1.75;1.65;;;25.60;24.40;;;;;;5011021;28;20208;-68
2021/05/30 12:27:24;;;;;;;2.08;1.55;;;26.00;24.10;;;;;;5012833;28;20292;-68
2021/05/30 12:29:55;;;;;;;2.53;2.00;;;25.60;24.40;;;;;;5010840;28;20302;-70
2021/05/30 12:32:22;;;;;;;1.73;1.63;;;25.20;25.70;;;;;;5016416;28;20230;-68
2021/05/30 12:34:49;;;;;;;2.58;1.75;;;25.50;24.70;;;;;;5013785;28;20367;-68
2021/05/30 12:37:16;;;;;;;2.10;1.88;;;25.20;24.80;;;;;;5016490;28;20180;-69
2021/05/30 12:39:42;;;;;;;1.70;1.52;;;25.10;25.70;;;;;;4999441;28;20386;-68
2021/05/30 12:42:16;;;;;;;2.03;1.80;;;24.70;25.80;;;;;;5018341;28;20561;-69
2021/05/30 12:44:54;;;;;;;4.15;1.88;;;24.20;26.10;;;;;;5020886;28;20234;-70
2021/05/30 12:47:23;;;;;;;1.83;1.73;;;24.20;27.00;;;;;;5020548;28;20641;-70
2021/05/30 12:49:57;;;;;;;2.03;1.80;;;23.70;26.60;;;;;;5017972;28;20689;-70
2021/05/30 12:52:23;;;;;;;2.30;2.10;;;22.90;27.40;;;;;;5019893;28;20194;-70